createdAt,value
2022-12-15T00:01:49.646Z,14.43
2022-12-15T00:04:06.791Z,15.25
2022-12-15T00:06:23.864Z,15.73
2022-12-15T00:08:41.139Z,16.10
2022-12-15T00:10:58.279Z,15.48
2022-12-15T00:13:15.345Z,16.10
2022-12-15T00:15:32.675Z,15.57
2022-12-15T00:17:49.901Z,15.77
2022-12-15T00:20:06.944Z,15.23
2022-12-15T00:22:23.942Z,16.02
2022-12-15T00:24:40.828Z,15.43
2022-12-15T00:26:57.774Z,15.48
2022-12-15T00:29:14.851Z,16.05
2022-12-15T00:31:32.010Z,15.80
2022-12-15T00:33:48.998Z,15.68
2022-12-15T00:36:06.067Z,15.82
2022-12-15T00:38:23.114Z,15.32
2022-12-15T00:40:40.449Z,16.77
2022-12-15T00:42:57.525Z,16.75
2022-12-15T00:45:14.628Z,15.98
2022-12-15T00:47:31.567Z,16.15
2022-12-15T00:49:49.863Z,16.38
2022-12-15T00:52:07.786Z,16.05
2022-12-15T00:54:24.740Z,15.95
2022-12-15T00:56:41.737Z,16.20
2022-12-15T00:58:58.868Z,15.90
2022-12-15T01:01:15.894Z,15.32
2022-12-15T01:03:33.537Z,15.40
2022-12-15T01:05:51.152Z,14.63
2022-12-15T01:08:08.226Z,15.45
2022-12-15T01:10:25.397Z,15.20
2022-12-15T01:12:42.483Z,15.57
2022-12-15T01:14:59.520Z,14.55
2022-12-15T01:17:16.463Z,15.57
2022-12-15T01:19:33.518Z,15.30
2022-12-15T01:21:50.735Z,14.85
2022-12-15T01:24:08.062Z,15.38
2022-12-15T01:26:25.149Z,15.02
2022-12-15T01:28:42.541Z,15.55
2022-12-15T01:30:59.836Z,15.40
2022-12-15T01:33:16.827Z,14.98
2022-12-15T01:35:33.911Z,15.02
2022-12-15T01:37:51.201Z,13.85
2022-12-15T01:40:08.267Z,14.10
2022-12-15T01:42:25.311Z,14.23
2022-12-15T01:44:42.667Z,14.90
2022-12-15T01:46:59.942Z,15.20
2022-12-15T01:49:16.930Z,14.18
2022-12-15T01:51:34.322Z,14.50
2022-12-15T01:53:52.286Z,13.57
2022-12-15T01:56:10.054Z,13.43
2022-12-15T01:58:28.310Z,15.05
2022-12-15T02:00:45.670Z,14.13
2022-12-15T02:03:03.164Z,14.43
2022-12-15T02:05:21.531Z,14.85
2022-12-15T02:07:38.635Z,14.82
2022-12-15T02:09:55.542Z,14.40
2022-12-15T02:12:13.529Z,15.20
2022-12-15T02:14:30.628Z,14.70
2022-12-15T02:16:47.624Z,15.57
2022-12-15T02:19:04.979Z,13.90
2022-12-15T02:21:22.242Z,14.68
2022-12-15T02:23:40.319Z,13.57
2022-12-15T02:25:57.560Z,14.00
2022-12-15T02:28:14.477Z,14.07
2022-12-15T02:30:33.001Z,14.75
2022-12-15T02:32:49.920Z,13.90
2022-12-15T02:35:06.879Z,14.57
2022-12-15T02:37:23.857Z,14.68
2022-12-15T02:39:41.164Z,13.38
2022-12-15T02:41:58.247Z,14.15
2022-12-15T02:44:15.301Z,13.98
2022-12-15T02:46:32.670Z,13.43
2022-12-15T02:48:49.668Z,14.32
2022-12-15T02:51:06.654Z,13.75
2022-12-15T02:53:24.013Z,14.65
2022-12-15T02:55:41.409Z,13.93
2022-12-15T02:57:58.319Z,14.32
2022-12-15T03:00:15.250Z,14.43
2022-12-15T03:02:32.312Z,13.82
2022-12-15T03:04:49.667Z,13.65
2022-12-15T03:07:06.680Z,13.95
2022-12-15T03:09:23.800Z,14.18
2022-12-15T03:11:41.877Z,13.68
2022-12-15T03:13:58.926Z,13.98
2022-12-15T03:16:16.018Z,13.68
2022-12-15T03:18:33.046Z,13.50
2022-12-15T03:20:49.879Z,13.93
2022-12-15T03:23:06.850Z,13.23
2022-12-15T03:30:21.141Z,14.05
2022-12-15T03:32:38.222Z,14.48
2022-12-15T03:34:55.145Z,13.50
2022-12-15T03:37:12.204Z,13.02
2022-12-15T03:39:29.212Z,13.85
2022-12-15T03:41:46.191Z,13.90
2022-12-15T03:44:04.471Z,14.05
2022-12-15T03:46:21.645Z,14.20
2022-12-15T03:48:39.715Z,13.13
2022-12-15T03:50:56.797Z,12.82
2022-12-15T03:53:14.103Z,13.57
2022-12-15T03:55:31.449Z,13.25
2022-12-15T03:57:48.505Z,13.45
2022-12-15T04:00:05.512Z,12.75
2022-12-15T04:02:22.531Z,13.52
2022-12-15T04:04:39.645Z,13.48
2022-12-15T04:06:56.954Z,12.90
2022-12-15T04:09:14.247Z,13.77
2022-12-15T04:11:32.251Z,13.27
2022-12-15T04:13:49.525Z,13.38
2022-12-15T04:16:07.827Z,13.90
2022-12-15T04:18:25.057Z,12.70
2022-12-15T04:20:41.966Z,13.45
2022-12-15T04:22:59.266Z,13.45
2022-12-15T04:25:16.584Z,13.20
2022-12-15T04:27:33.914Z,13.48
2022-12-15T04:29:50.963Z,14.10
2022-12-15T04:32:08.020Z,13.57
2022-12-15T04:34:26.374Z,13.00
2022-12-15T04:36:43.659Z,13.05
2022-12-15T04:39:00.910Z,13.82
2022-12-15T04:41:18.131Z,13.18
2022-12-15T04:43:35.193Z,13.50
2022-12-15T04:45:54.075Z,14.00
2022-12-15T04:48:11.127Z,13.05
2022-12-15T04:50:29.202Z,12.40
2022-12-15T04:52:46.550Z,12.82
2022-12-15T04:55:04.473Z,13.30
2022-12-15T04:57:21.770Z,12.95
2022-12-15T04:59:38.810Z,13.80
2022-12-15T05:01:56.219Z,12.68
2022-12-15T05:04:13.421Z,13.07
2022-12-15T05:06:30.828Z,13.48
2022-12-15T05:08:47.780Z,14.38
2022-12-15T05:11:07.617Z,13.18
2022-12-15T05:13:25.514Z,13.20
2022-12-15T05:15:42.809Z,14.20
2022-12-15T05:17:59.837Z,13.75
2022-12-15T05:20:17.036Z,13.80
2022-12-15T05:22:34.088Z,12.98
2022-12-15T05:24:51.384Z,13.10
2022-12-15T05:27:08.331Z,13.13
2022-12-15T05:29:26.613Z,12.95
2022-12-15T05:31:43.904Z,11.95
2022-12-15T05:34:05.067Z,13.55
2022-12-15T05:36:22.861Z,13.27
2022-12-15T05:38:39.970Z,13.23
2022-12-15T05:40:56.955Z,12.48
2022-12-15T05:43:13.997Z,12.75
2022-12-15T05:45:31.289Z,13.38
2022-12-15T05:47:48.426Z,13.55
2022-12-15T05:50:05.389Z,13.52
2022-12-15T05:52:22.482Z,13.43
2022-12-15T05:54:40.759Z,12.93
2022-12-15T05:56:58.093Z,13.18
2022-12-15T05:59:15.127Z,13.55
2022-12-15T06:01:32.144Z,13.35
2022-12-15T06:03:49.421Z,14.20
2022-12-15T06:06:06.778Z,13.80
2022-12-15T06:08:24.131Z,12.88
2022-12-15T06:10:41.115Z,13.73
2022-12-15T06:12:59.483Z,13.32
2022-12-15T06:15:16.440Z,13.38
2022-12-15T06:17:34.311Z,14.25
2022-12-15T06:19:51.401Z,13.00
2022-12-15T06:22:08.722Z,12.32
2022-12-15T06:24:27.174Z,13.63
2022-12-15T06:26:44.500Z,13.48
2022-12-15T06:29:01.441Z,21.02
2022-12-15T06:31:18.758Z,15.57
2022-12-15T06:33:37.101Z,15.48
2022-12-15T06:35:54.134Z,19.17
2022-12-15T06:38:11.236Z,23.23
2022-12-15T06:40:31.000Z,18.15
2022-12-15T06:42:50.723Z,16.50
2022-12-15T06:45:08.021Z,16.85
2022-12-15T06:47:25.286Z,15.25
2022-12-15T06:49:42.354Z,17.75
2022-12-15T06:51:59.299Z,15.52
2022-12-15T06:54:16.382Z,15.20
2022-12-15T06:56:34.695Z,16.23
2022-12-15T06:58:52.109Z,16.73
2022-12-15T07:01:09.395Z,15.80
2022-12-15T07:03:26.881Z,14.70
2022-12-15T07:05:44.027Z,14.15
2022-12-15T07:08:01.230Z,14.23
2022-12-15T07:10:18.670Z,13.50
2022-12-15T07:12:35.565Z,13.70
2022-12-15T07:14:53.671Z,13.13
2022-12-15T07:17:11.155Z,14.20
2022-12-15T07:19:28.313Z,15.10
2022-12-15T07:21:45.545Z,15.07
2022-12-15T07:24:03.080Z,14.90
2022-12-15T07:26:20.509Z,15.68
2022-12-15T07:28:37.593Z,15.73
2022-12-15T07:30:54.493Z,15.23
2022-12-15T07:33:11.570Z,16.20
2022-12-15T07:35:28.844Z,15.50
2022-12-15T07:37:45.745Z,15.57
2022-12-15T07:40:02.757Z,16.30
2022-12-15T07:42:19.825Z,16.30
2022-12-15T07:44:37.075Z,16.25
2022-12-15T07:46:54.020Z,16.30
2022-12-15T07:49:10.864Z,15.93
2022-12-15T07:51:27.837Z,16.23
2022-12-15T07:53:45.741Z,16.05
2022-12-15T07:56:08.073Z,16.60
2022-12-15T07:58:25.848Z,16.98
2022-12-15T08:00:48.668Z,16.63
2022-12-15T08:03:06.380Z,19.58
2022-12-15T08:05:42.474Z,25.70
2022-12-15T08:07:59.571Z,18.75
2022-12-15T08:10:16.478Z,16.90
2022-12-15T08:12:33.728Z,17.15
2022-12-15T08:14:50.760Z,22.27
2022-12-15T08:17:08.066Z,24.58
2022-12-15T08:19:25.015Z,22.60
2022-12-15T08:21:42.327Z,20.70
2022-12-15T08:24:01.194Z,19.23
2022-12-15T08:26:18.236Z,19.48
2022-12-15T08:28:35.165Z,19.27
2022-12-15T08:30:52.111Z,20.98
2022-12-15T08:33:10.380Z,19.80
2022-12-15T08:35:55.094Z,19.90
2022-12-15T08:38:05.843Z,17.20
2022-12-15T08:40:23.324Z,19.10
2022-12-15T08:42:40.667Z,18.88
2022-12-15T08:44:57.549Z,18.83
2022-12-15T08:47:14.531Z,18.20
2022-12-15T08:49:32.782Z,17.48
2022-12-15T08:51:50.102Z,17.17
2022-12-15T08:54:07.634Z,17.80
2022-12-15T08:56:24.916Z,19.05
2022-12-15T08:58:42.159Z,18.45
2022-12-15T09:00:59.197Z,17.33
2022-12-15T09:03:16.324Z,19.17
2022-12-15T09:05:33.347Z,18.90
2022-12-15T09:07:51.303Z,17.52
2022-12-15T09:10:08.339Z,18.85
2022-12-15T09:12:26.556Z,17.67
2022-12-15T09:14:43.403Z,18.88
2022-12-15T09:17:00.445Z,18.13
2022-12-15T09:19:17.442Z,19.63
2022-12-15T09:21:35.466Z,19.02
2022-12-15T09:23:52.552Z,18.17
2022-12-15T09:26:10.778Z,19.55
2022-12-15T09:28:28.936Z,19.10
2022-12-15T09:30:47.252Z,18.33
2022-12-15T09:33:04.239Z,19.05
2022-12-15T09:35:21.197Z,20.55
2022-12-15T09:37:38.433Z,20.08
2022-12-15T09:39:55.473Z,21.25
2022-12-15T09:42:12.496Z,23.55
2022-12-15T09:44:29.809Z,28.88
2022-12-15T09:46:49.874Z,26.20
2022-12-15T09:49:07.448Z,25.42
2022-12-15T09:51:24.841Z,23.00
2022-12-15T09:53:57.969Z,21.15
2022-12-15T09:56:15.503Z,21.00
2022-12-15T09:58:32.669Z,22.45
2022-12-15T10:00:52.643Z,21.40
2022-12-15T10:03:11.134Z,20.85
2022-12-15T10:05:50.001Z,21.20
2022-12-15T10:08:05.659Z,20.30
2022-12-15T10:10:22.677Z,21.70
2022-12-15T10:12:46.860Z,23.00
2022-12-15T10:15:12.768Z,22.95
2022-12-15T10:17:30.168Z,20.65
2022-12-15T10:22:24.696Z,21.95
2022-12-15T10:27:18.631Z,22.05
2022-12-15T10:29:35.745Z,21.60
2022-12-15T10:31:52.869Z,21.25
2022-12-15T10:34:11.973Z,20.75
2022-12-15T10:36:29.041Z,18.45
2022-12-15T10:38:46.065Z,19.33
2022-12-15T10:41:07.685Z,20.85
2022-12-15T10:43:25.980Z,21.15
2022-12-15T10:45:42.951Z,22.08
2022-12-15T10:47:59.991Z,23.25
2022-12-15T10:50:24.082Z,21.17
2022-12-15T10:52:41.668Z,19.85
2022-12-15T10:54:59.728Z,20.30
2022-12-15T10:57:17.021Z,20.48
2022-12-15T10:59:34.370Z,20.98
2022-12-15T11:01:52.621Z,20.02
2022-12-15T11:04:10.815Z,19.88
2022-12-15T11:06:28.220Z,20.50
2022-12-15T11:08:45.579Z,20.10
2022-12-15T11:11:07.668Z,21.60
2022-12-15T11:13:28.441Z,19.98
2022-12-15T11:15:50.758Z,20.02
2022-12-15T11:18:07.977Z,22.05
2022-12-15T11:20:25.130Z,23.48
2022-12-15T11:22:43.051Z,21.20
2022-12-15T11:25:00.011Z,21.10
2022-12-15T11:27:17.061Z,19.85
2022-12-15T11:29:34.076Z,19.48
2022-12-15T11:31:51.197Z,18.83
2022-12-15T11:34:08.208Z,18.33
2022-12-15T11:36:26.481Z,19.05
2022-12-15T11:38:43.860Z,18.70
2022-12-15T11:41:01.206Z,19.77
2022-12-15T11:43:18.102Z,18.77
2022-12-15T11:45:35.083Z,18.52
2022-12-15T11:47:52.397Z,19.30
2022-12-15T11:50:09.500Z,20.42
2022-12-15T11:52:26.561Z,18.98
2022-12-15T11:54:44.877Z,18.70
2022-12-15T11:57:02.451Z,18.02
2022-12-15T11:59:19.793Z,19.35
2022-12-15T12:01:36.886Z,18.40
2022-12-15T12:03:54.035Z,18.38
2022-12-15T12:06:11.145Z,18.95
2022-12-15T12:08:28.903Z,18.83
2022-12-15T12:10:46.536Z,25.98
2022-12-15T12:13:05.538Z,23.58
2022-12-15T12:15:22.947Z,24.42
2022-12-15T12:17:39.948Z,20.80
2022-12-15T12:19:57.782Z,19.65
2022-12-15T12:22:14.737Z,18.63
2022-12-15T12:24:31.732Z,21.58
2022-12-15T12:26:50.098Z,20.35
2022-12-15T12:29:07.333Z,20.10
2022-12-15T12:31:24.479Z,19.92
2022-12-15T12:33:41.626Z,20.33
2022-12-15T12:35:58.678Z,17.45
2022-12-15T12:38:17.032Z,18.58
2022-12-15T12:40:34.371Z,17.40
2022-12-15T12:42:51.356Z,20.50
2022-12-15T12:45:08.320Z,18.73
2022-12-15T12:47:25.597Z,16.73
2022-12-15T12:49:43.628Z,16.17
2022-12-15T12:52:00.972Z,16.58
2022-12-15T12:54:18.302Z,15.65
2022-12-15T12:56:36.254Z,19.30
2022-12-15T12:58:53.346Z,17.25
2022-12-15T13:01:10.542Z,16.90
2022-12-15T13:03:27.707Z,16.80
2022-12-15T13:05:44.706Z,18.02
2022-12-15T13:08:02.490Z,17.70
2022-12-15T13:10:20.803Z,17.48
2022-12-15T13:12:53.887Z,16.85
2022-12-15T13:15:12.334Z,16.75
2022-12-15T13:17:30.018Z,18.10
2022-12-15T13:19:52.108Z,18.75
2022-12-15T13:22:11.666Z,17.88
2022-12-15T13:24:28.951Z,16.92
2022-12-15T13:26:48.631Z,17.25
2022-12-15T13:29:05.894Z,19.02
2022-12-15T13:31:23.296Z,17.83
2022-12-15T13:33:40.720Z,18.33
2022-12-15T13:35:57.734Z,18.25
2022-12-15T13:38:17.246Z,17.73
2022-12-15T13:40:34.272Z,17.73
2022-12-15T13:42:58.075Z,18.98
2022-12-15T13:45:15.569Z,19.23
2022-12-15T13:47:32.891Z,19.35
2022-12-15T13:49:54.465Z,19.42
2022-12-15T13:52:16.282Z,19.83
2022-12-15T13:54:33.219Z,20.48
2022-12-15T13:56:50.862Z,20.15
2022-12-15T13:59:08.252Z,19.17
2022-12-15T14:01:30.159Z,19.98
2022-12-15T14:03:49.269Z,20.35
2022-12-15T14:06:08.207Z,19.30
2022-12-15T14:08:25.262Z,18.10
2022-12-15T14:10:42.610Z,17.73
2022-12-15T14:13:00.908Z,20.05
2022-12-15T14:15:17.881Z,19.70
2022-12-15T14:17:35.204Z,19.77
2022-12-15T14:19:52.511Z,18.67
2022-12-15T14:22:09.821Z,19.55
2022-12-15T14:24:42.266Z,19.50
2022-12-15T14:26:59.207Z,19.75
2022-12-15T14:29:16.278Z,18.75
2022-12-15T14:31:33.466Z,19.58
2022-12-15T14:33:50.921Z,19.13
2022-12-15T14:36:08.196Z,19.17
2022-12-15T14:38:25.897Z,18.42
2022-12-15T14:40:43.170Z,19.77
2022-12-15T14:43:00.568Z,19.77
2022-12-15T14:45:17.958Z,18.35
2022-12-15T14:47:35.947Z,19.77
2022-12-15T14:49:54.263Z,19.25
2022-12-15T14:52:12.312Z,19.05
2022-12-15T14:54:29.385Z,20.13
2022-12-15T14:56:46.738Z,18.70
2022-12-15T14:59:03.940Z,18.58
2022-12-15T15:01:21.264Z,18.67
2022-12-15T15:03:11.090Z,24.00
2022-12-15T15:03:38.376Z,18.35
2022-12-15T15:05:55.942Z,18.73
2022-12-15T15:08:13.329Z,17.88
2022-12-15T15:10:30.718Z,17.65
2022-12-15T15:12:47.679Z,19.33
2022-12-15T15:15:05.539Z,18.42
2022-12-15T15:17:22.878Z,18.45
2022-12-15T15:19:40.227Z,18.25
2022-12-15T15:21:57.532Z,17.58
2022-12-15T15:24:14.515Z,17.15
2022-12-15T15:26:31.535Z,18.70
2022-12-15T15:28:49.852Z,17.65
2022-12-15T15:31:06.876Z,19.02
2022-12-15T15:33:23.864Z,18.05
2022-12-15T15:35:40.760Z,18.35
2022-12-15T15:37:57.851Z,19.17
2022-12-15T15:40:14.788Z,17.98
2022-12-15T15:42:32.845Z,17.77
2022-12-15T15:44:50.026Z,16.70
2022-12-15T15:47:06.933Z,17.40
2022-12-15T15:49:23.973Z,17.70
2022-12-15T15:51:41.947Z,17.95
2022-12-15T15:53:59.243Z,17.42
2022-12-15T15:56:16.578Z,17.17
2022-12-15T15:58:34.071Z,17.55
2022-12-15T16:00:51.598Z,17.38
2022-12-15T16:03:09.138Z,17.05
2022-12-15T16:05:26.334Z,17.40
2022-12-15T16:07:43.694Z,17.50
2022-12-15T16:10:00.968Z,18.00
2022-12-15T16:12:18.960Z,19.25
2022-12-15T16:14:36.202Z,18.45
2022-12-15T16:16:53.206Z,20.15
2022-12-15T16:19:10.434Z,19.80
2022-12-15T16:21:27.678Z,19.00
2022-12-15T16:23:44.936Z,19.25
2022-12-15T16:26:02.252Z,19.00
2022-12-15T16:28:20.229Z,18.48
2022-12-15T16:30:37.177Z,18.67
2022-12-15T16:32:54.207Z,20.42
2022-12-15T16:35:12.520Z,21.23
2022-12-15T16:37:32.408Z,20.20
2022-12-15T16:39:51.801Z,21.52
2022-12-15T16:42:09.083Z,21.30
2022-12-15T16:44:26.104Z,19.33
2022-12-15T16:46:43.168Z,18.85
2022-12-15T16:49:00.508Z,18.33
2022-12-15T16:51:17.620Z,18.10
2022-12-15T16:53:34.858Z,18.95
2022-12-15T16:55:51.743Z,18.85
2022-12-15T16:58:08.747Z,18.75
2022-12-15T17:00:26.064Z,17.65
2022-12-15T17:02:43.232Z,17.83
2022-12-15T17:05:00.298Z,17.13
2022-12-15T17:07:20.385Z,18.30
2022-12-15T17:09:38.262Z,18.65
2022-12-15T17:11:55.491Z,17.38
2022-12-15T17:14:12.483Z,18.02
2022-12-15T17:16:29.580Z,18.23
2022-12-15T17:18:46.596Z,18.33
2022-12-15T17:21:03.525Z,17.73
2022-12-15T17:23:20.574Z,17.90
2022-12-15T17:26:17.999Z,16.40
2022-12-15T17:28:14.738Z,15.93
2022-12-15T17:30:31.763Z,16.17
2022-12-15T17:32:49.090Z,16.45
2022-12-15T17:35:06.333Z,16.33
2022-12-15T17:37:23.421Z,16.98
2022-12-15T17:39:40.513Z,16.85
2022-12-15T17:42:00.616Z,16.52
2022-12-15T17:44:36.235Z,16.20
2022-12-15T17:46:54.184Z,14.15
2022-12-15T17:49:11.229Z,15.27
2022-12-15T17:51:28.152Z,16.90
2022-12-15T17:53:45.104Z,21.15
2022-12-15T17:56:02.016Z,21.27
2022-12-15T17:58:18.965Z,22.98
2022-12-15T18:00:36.013Z,23.70
2022-12-15T18:02:54.005Z,23.83
2022-12-15T18:05:11.956Z,23.00
2022-12-15T18:07:28.899Z,21.60
2022-12-15T18:09:47.112Z,20.17
2022-12-15T18:12:03.979Z,19.33
2022-12-15T18:14:21.083Z,19.50
2022-12-15T18:16:38.117Z,16.23
2022-12-15T18:18:55.154Z,15.95
2022-12-15T18:21:12.395Z,14.15
2022-12-15T18:23:29.935Z,14.27
2022-12-15T18:25:47.155Z,16.08
2022-12-15T18:28:04.030Z,16.77
2022-12-15T18:30:21.011Z,16.63
2022-12-15T18:32:37.958Z,16.75
2022-12-15T18:34:55.225Z,18.10
2022-12-15T18:37:12.498Z,16.73
2022-12-15T18:39:29.776Z,16.23
2022-12-15T18:41:47.116Z,16.45
2022-12-15T18:44:04.175Z,16.92
2022-12-15T18:46:22.401Z,17.13
2022-12-15T18:48:39.714Z,16.83
2022-12-15T18:50:57.051Z,17.25
2022-12-15T18:53:14.234Z,16.63
2022-12-15T18:55:31.484Z,15.10
2022-12-15T18:57:49.487Z,15.82
2022-12-15T19:00:06.408Z,15.30
2022-12-15T19:02:23.493Z,15.48
2022-12-15T19:04:40.502Z,15.88
2022-12-15T19:06:57.762Z,15.73
2022-12-15T19:09:14.707Z,16.40
2022-12-15T19:11:32.524Z,17.50
2022-12-15T19:13:49.411Z,17.50
2022-12-15T19:16:06.518Z,17.67
2022-12-15T19:18:23.850Z,17.90
2022-12-15T19:20:41.147Z,18.17
2022-12-15T19:22:58.168Z,17.63
2022-12-15T19:25:15.014Z,16.23
2022-12-15T19:27:33.004Z,16.52
2022-12-15T19:29:50.256Z,16.35
2022-12-15T19:32:07.288Z,19.40
2022-12-15T19:34:24.227Z,18.40
2022-12-15T19:36:41.486Z,17.10
2022-12-15T19:38:58.520Z,17.17
2022-12-15T19:41:16.772Z,17.25
2022-12-15T19:43:33.924Z,16.90
2022-12-15T19:45:51.172Z,15.95
2022-12-15T19:48:08.104Z,16.77
2022-12-15T19:50:25.138Z,16.45
2022-12-15T19:52:42.139Z,15.10
2022-12-15T19:54:59.447Z,15.95
2022-12-15T19:57:16.451Z,17.02
2022-12-15T19:59:33.711Z,16.02
2022-12-15T20:01:50.860Z,15.27
2022-12-15T20:04:08.982Z,15.63
2022-12-15T20:06:26.921Z,15.20
2022-12-15T20:08:43.912Z,17.33
2022-12-15T20:11:01.171Z,18.08
2022-12-15T20:13:18.254Z,18.48
2022-12-15T20:15:35.219Z,18.85
2022-12-15T20:17:52.207Z,17.45
2022-12-15T20:20:11.550Z,20.25
2022-12-15T20:22:28.673Z,17.77
2022-12-15T20:24:45.596Z,18.73
2022-12-15T20:27:04.998Z,17.90
2022-12-15T20:29:25.745Z,15.57
2022-12-15T20:31:43.113Z,15.52
2022-12-15T20:34:00.450Z,15.55
2022-12-15T20:36:17.545Z,15.32
2022-12-15T20:38:35.878Z,16.15
2022-12-15T20:40:52.759Z,15.98
2022-12-15T20:43:09.739Z,16.60
2022-12-15T20:45:26.720Z,15.68
2022-12-15T20:47:43.759Z,14.80
2022-12-15T20:50:00.804Z,16.63
2022-12-15T20:52:18.020Z,15.93
2022-12-15T20:54:35.265Z,15.55
2022-12-15T20:56:52.506Z,15.68
2022-12-15T20:59:09.469Z,16.27
2022-12-15T21:01:26.607Z,14.07
2022-12-15T21:03:43.582Z,14.80
2022-12-15T21:06:00.579Z,16.67
2022-12-15T21:08:17.925Z,15.85
2022-12-15T21:10:35.929Z,16.65
2022-12-15T21:12:52.868Z,16.20
2022-12-15T21:15:09.785Z,16.38
2022-12-15T21:17:27.023Z,15.25
2022-12-15T21:19:44.018Z,15.35
2022-12-15T21:22:00.933Z,15.60
2022-12-15T21:24:17.889Z,15.32
2022-12-15T21:26:35.835Z,15.73
2022-12-15T21:28:52.751Z,14.98
2022-12-15T21:31:10.524Z,14.75
2022-12-15T21:33:27.473Z,14.70
2022-12-15T21:35:44.518Z,15.43
2022-12-15T21:38:01.442Z,15.68
2022-12-15T21:40:18.398Z,14.10
2022-12-15T21:42:35.442Z,14.63
2022-12-15T21:44:52.776Z,14.25
2022-12-15T21:47:09.775Z,16.00
2022-12-15T21:49:26.707Z,14.48
2022-12-15T21:51:43.685Z,14.35
2022-12-15T21:54:00.959Z,14.75
2022-12-15T21:56:18.915Z,14.85
2022-12-15T21:58:36.084Z,13.75
2022-12-15T22:00:53.142Z,14.30
2022-12-15T22:03:11.597Z,14.10
2022-12-15T22:05:28.510Z,13.68
2022-12-15T22:07:45.507Z,14.65
2022-12-15T22:10:02.456Z,14.93
2022-12-15T22:12:19.438Z,14.15
2022-12-15T22:14:37.429Z,15.00
2022-12-15T22:16:54.436Z,13.02
2022-12-15T22:19:11.867Z,15.02
2022-12-15T22:21:29.139Z,13.05
2022-12-15T22:23:46.206Z,13.57
2022-12-15T22:26:03.117Z,14.95
2022-12-15T22:28:20.107Z,14.18
2022-12-15T22:30:37.061Z,14.68
2022-12-15T22:32:54.285Z,14.55
2022-12-15T22:35:11.525Z,14.00
2022-12-15T22:37:28.481Z,14.57
2022-12-15T22:39:45.529Z,15.07
2022-12-15T22:42:02.530Z,15.18
2022-12-15T22:44:19.515Z,15.27
2022-12-15T22:46:36.603Z,15.50
2022-12-15T22:48:54.778Z,14.13
2022-12-15T22:51:11.900Z,14.45
2022-12-15T22:53:29.225Z,14.30
2022-12-15T22:55:47.236Z,14.52
2022-12-15T22:58:04.203Z,16.13
2022-12-15T23:00:21.130Z,13.77
2022-12-15T23:02:38.531Z,13.55
2022-12-15T23:04:55.678Z,14.15
2022-12-15T23:07:12.656Z,14.27
2022-12-15T23:09:29.704Z,14.18
2022-12-15T23:11:46.958Z,14.25
2022-12-15T23:14:04.009Z,14.05
2022-12-15T23:16:21.413Z,14.32
2022-12-15T23:18:38.974Z,13.38
2022-12-15T23:20:56.489Z,14.20
2022-12-15T23:23:13.446Z,13.23
2022-12-15T23:25:30.922Z,12.63
2022-12-15T23:27:47.851Z,14.20
2022-12-15T23:30:05.127Z,14.40
2022-12-15T23:32:22.046Z,13.68
2022-12-15T23:34:39.063Z,13.52
2022-12-15T23:36:56.142Z,14.18
2022-12-15T23:39:14.396Z,13.30
2022-12-15T23:41:31.379Z,13.32
2022-12-15T23:43:49.677Z,13.52
2022-12-15T23:46:07.082Z,12.52
2022-12-15T23:48:25.344Z,13.80
2022-12-15T23:50:42.229Z,13.00
2022-12-15T23:52:59.171Z,13.70
2022-12-15T23:55:16.584Z,12.82
2022-12-15T23:57:33.572Z,13.70
2022-12-15T23:59:50.694Z,12.77
